Charles W Clark — WCP7548 — position and weather

sailwx.info

Track history (hours):
 
Tides and Currents Weather Stations Pressure Air Temp Water Temp Dewpoint Dewpoint Depression Visibility Wind Speed Wind Dir Waves Ship Positions

Charles W Clark

Owner: BLESSEY ENTERPRISES INC, HARAHAN, LA. More information available from US FCC via Universal Licensing System and Coast Guard Vessel Documentation Center.

Last reported at 2017-Nov-18 15:01 UTC. Time now 2017-Nov-20 15:43 UTC.
Position N 29°44' W 095°03'.

Length 20 m.

Type: Towing. MMSI: 366933680.

Date/timePositionNaut miles runAvg speedWind from/ knotsBaromVisibWave heightAir tempDewpointWater temp
2017-Nov-18 15:01N 29°44' W 095°03'0 4.9
2017-Nov-18 15:00N 29°44' W 095°03'0 0.2
2017-Nov-18 14:28N 29°44' W 095°03'0 0.0
2017-Nov-18 10:57N 29°44' W 095°03'0 0.4
2017-Nov-18 10:27N 29°44' W 095°03'1 2.1
2017-Nov-18 09:57N 29°45' W 095°04'  
2017-Nov-15 20:49N 29°44' W 095°08'3 7.8
2017-Nov-15 20:26N 29°45' W 095°12'2 3.4
2017-Nov-15 19:52N 29°44' W 095°14'0 0.0
2017-Nov-15 19:30N 29°44' W 095°14'0 0.0
2017-Nov-15 18:55N 29°44' W 095°14'0 0.0
2017-Nov-15 15:45N 29°44' W 095°14'0 0.0
2017-Nov-15 14:19N 29°44' W 095°14'0 0.0
2017-Nov-15 14:00N 29°44' W 095°14'0 0.0
2017-Nov-15 13:29N 29°44' W 095°14'0 0.0
2017-Nov-15 11:53N 29°44' W 095°14'0 0.0
2017-Nov-15 11:30N 29°44' W 095°14'0 0.0
2017-Nov-15 11:00N 29°44' W 095°14'0 0.0
2017-Nov-15 10:28N 29°44' W 095°14'0 0.0
2017-Nov-15 10:00N 29°44' W 095°14'0 0.0
2017-Nov-15 09:30N 29°44' W 095°14'0 0.0
2017-Nov-15 08:58N 29°44' W 095°14'0 0.0
2017-Nov-15 08:29N 29°44' W 095°14'0 0.0
2017-Nov-15 08:00N 29°44' W 095°14'0 0.0
2017-Nov-15 07:08N 29°44' W 095°14'0 0.0
2017-Nov-15 06:59N 29°44' W 095°14'0 0.0
2017-Nov-15 06:24N 29°44' W 095°14'0 0.0
2017-Nov-15 06:00N 29°44' W 095°14'0 0.0
2017-Nov-15 05:30N 29°44' W 095°14'0 0.0
2017-Nov-15 04:59N 29°44' W 095°14'0 0.0
2017-Nov-15 04:29N 29°44' W 095°14'0 0.0
2017-Nov-15 03:58N 29°44' W 095°14'0 0.0
2017-Nov-15 03:28N 29°44' W 095°14'0 0.0
2017-Nov-15 02:55N 29°44' W 095°14'0 0.0
2017-Nov-15 02:13N 29°44' W 095°14'0 0.0
2017-Nov-15 01:56N 29°44' W 095°14'0 0.0
2017-Nov-15 01:21N 29°44' W 095°14'1 4.1
2017-Nov-15 01:00N 29°44' W 095°12'3 1.2
2017-Nov-14 22:17N 29°44' W 095°08'4 7.0
2017-Nov-14 21:40N 29°43' W 095°13'0 2.1
2017-Nov-14 21:30N 29°44' W 095°13'0 0.0
2017-Nov-14 21:00N 29°44' W 095°13'0 0.0
2017-Nov-14 20:30N 29°44' W 095°13'0 0.0
2017-Nov-14 20:00N 29°44' W 095°13'0 0.0
2017-Nov-14 19:30N 29°44' W 095°13'0 0.0
2017-Nov-14 18:57N 29°44' W 095°13'0 0.0
2017-Nov-14 18:30N 29°44' W 095°13'0 0.0
2017-Nov-14 17:59N 29°44' W 095°13'0 0.0
2017-Nov-14 17:22N 29°44' W 095°13'0 0.0
2017-Nov-14 16:56N 29°44' W 095°13'0 0.0
2017-Nov-14 16:28N 29°44' W 095°13'0 0.0
2017-Nov-14 15:59N 29°44' W 095°13'0 0.0
2017-Nov-14 15:30N 29°44' W 095°13'0 0.0
2017-Nov-14 15:00N 29°44' W 095°13'0 0.0
2017-Nov-14 14:30N 29°44' W 095°13'0 0.0
2017-Nov-14 14:00N 29°44' W 095°13'0 0.0
2017-Nov-14 13:30N 29°44' W 095°13'0 0.0
2017-Nov-14 13:00N 29°44' W 095°13'0 0.0
2017-Nov-14 12:31N 29°44' W 095°13'0 0.0
2017-Nov-14 12:00N 29°44' W 095°13'0 0.0
2017-Nov-14 11:30N 29°44' W 095°13'0 0.0
2017-Nov-14 11:00N 29°44' W 095°13'0 0.0
2017-Nov-14 10:30N 29°44' W 095°13'0 0.0
2017-Nov-14 10:00N 29°44' W 095°13'0 0.0
2017-Nov-14 09:30N 29°44' W 095°13'0 0.0
2017-Nov-14 09:00N 29°44' W 095°13'0 0.0
2017-Nov-14 08:30N 29°44' W 095°13'0 0.0
2017-Nov-14 08:00N 29°44' W 095°13'0 0.0
2017-Nov-14 07:30N 29°44' W 095°13'0 0.0
2017-Nov-14 07:00N 29°44' W 095°13'0 0.0
2017-Nov-14 06:30N 29°44' W 095°13'0 0.0
2017-Nov-14 06:00N 29°44' W 095°13'0 0.0
2017-Nov-14 05:14N 29°44' W 095°13'0 0.0
2017-Nov-14 05:00N 29°44' W 095°13'0 0.0
2017-Nov-14 04:31N 29°44' W 095°13'0 0.0
2017-Nov-14 04:00N 29°44' W 095°13'0 0.0
2017-Nov-14 03:30N 29°44' W 095°13'0 0.0
2017-Nov-14 03:00N 29°44' W 095°13'0 0.0
2017-Nov-14 02:30N 29°44' W 095°13'0 0.0
2017-Nov-14 02:00N 29°44' W 095°13'0 0.0
2017-Nov-14 01:30N 29°44' W 095°13'0 0.0
2017-Nov-14 01:00N 29°44' W 095°13'0 0.0
2017-Nov-14 00:30N 29°44' W 095°13'0 0.0
2017-Nov-14 00:00N 29°44' W 095°13'0 0.0
2017-Nov-13 23:29N 29°44' W 095°13'3 5.0
2017-Nov-13 22:54N 29°45' W 095°10'6 0.3
2017-Nov-13 01:57N 29°47' W 095°05'0 0.0
2017-Nov-13 00:32N 29°47' W 095°05'3 0.3
2017-Nov-12 13:07N 29°45' W 095°06'0 0.0
2017-Nov-12 12:58N 29°45' W 095°06'0 0.0
2017-Nov-12 11:38N 29°45' W 095°06'0 0.0
2017-Nov-12 11:09N 29°45' W 095°06'0 0.0
2017-Nov-12 10:38N 29°45' W 095°06'0 0.0
2017-Nov-12 10:23N 29°45' W 095°06'0 0.0
2017-Nov-12 09:55N 29°45' W 095°06'3 0.6
2017-Nov-12 05:19N 29°47' W 095°05'0 0.0
2017-Nov-12 05:00N 29°47' W 095°05'0 0.0
2017-Nov-12 04:30N 29°47' W 095°05'0 0.0
2017-Nov-12 03:16N 29°47' W 095°05'1 0.8
2017-Nov-12 02:11N 29°46' W 095°05'2 0.1
2017-Nov-11 10:16N 29°46' W 095°07'1 0.8
2017-Nov-11 08:32N 29°46' W 095°05'0 2.9
2017-Nov-11 08:29N 29°46' W 095°05'1 0.2
2017-Nov-11 01:53N 29°46' W 095°06'  
Track history (hours):
 
Tides and Currents Weather Stations Pressure Air Temp Water Temp Dewpoint Dewpoint Depression Visibility Wind Speed Wind Dir Waves Ship Positions

Charles W Clark

Owner: BLESSEY ENTERPRISES INC, HARAHAN, LA. More information available from US FCC via Universal Licensing System and Coast Guard Vessel Documentation Center.

Last reported at 2017-Nov-18 15:01 UTC. Time now 2017-Nov-20 15:43 UTC.
Position N 29°44' W 095°03'.

Length 20 m.

Type: Towing. MMSI: 366933680.

Date/timePositionNaut miles runAvg speedWind from/ knotsBaromVisibWave heightAir tempDewpointWater temp
2017-Nov-18 15:01N 29°44' W 095°03'0 4.9
2017-Nov-18 15:00N 29°44' W 095°03'0 0.2
2017-Nov-18 14:28N 29°44' W 095°03'0 0.0
2017-Nov-18 10:57N 29°44' W 095°03'0 0.4
2017-Nov-18 10:27N 29°44' W 095°03'1 2.1
2017-Nov-18 09:57N 29°45' W 095°04'  
2017-Nov-15 20:49N 29°44' W 095°08'3 7.8
2017-Nov-15 20:26N 29°45' W 095°12'2 3.4
2017-Nov-15 19:52N 29°44' W 095°14'0 0.0
2017-Nov-15 19:30N 29°44' W 095°14'0 0.0
2017-Nov-15 18:55N 29°44' W 095°14'0 0.0
2017-Nov-15 15:45N 29°44' W 095°14'0 0.0
2017-Nov-15 14:19N 29°44' W 095°14'0 0.0
2017-Nov-15 14:00N 29°44' W 095°14'0 0.0
2017-Nov-15 13:29N 29°44' W 095°14'0 0.0
2017-Nov-15 11:53N 29°44' W 095°14'0 0.0
2017-Nov-15 11:30N 29°44' W 095°14'0 0.0
2017-Nov-15 11:00N 29°44' W 095°14'0 0.0
2017-Nov-15 10:28N 29°44' W 095°14'0 0.0
2017-Nov-15 10:00N 29°44' W 095°14'0 0.0
2017-Nov-15 09:30N 29°44' W 095°14'0 0.0
2017-Nov-15 08:58N 29°44' W 095°14'0 0.0
2017-Nov-15 08:29N 29°44' W 095°14'0 0.0
2017-Nov-15 08:00N 29°44' W 095°14'0 0.0
2017-Nov-15 07:08N 29°44' W 095°14'0 0.0
2017-Nov-15 06:59N 29°44' W 095°14'0 0.0
2017-Nov-15 06:24N 29°44' W 095°14'0 0.0
2017-Nov-15 06:00N 29°44' W 095°14'0 0.0
2017-Nov-15 05:30N 29°44' W 095°14'0 0.0
2017-Nov-15 04:59N 29°44' W 095°14'0 0.0
2017-Nov-15 04:29N 29°44' W 095°14'0 0.0
2017-Nov-15 03:58N 29°44' W 095°14'0 0.0
2017-Nov-15 03:28N 29°44' W 095°14'0 0.0
2017-Nov-15 02:55N 29°44' W 095°14'0 0.0
2017-Nov-15 02:13N 29°44' W 095°14'0 0.0
2017-Nov-15 01:56N 29°44' W 095°14'0 0.0
2017-Nov-15 01:21N 29°44' W 095°14'1 4.1
2017-Nov-15 01:00N 29°44' W 095°12'3 1.2
2017-Nov-14 22:17N 29°44' W 095°08'4 7.0
2017-Nov-14 21:40N 29°43' W 095°13'0 2.1
2017-Nov-14 21:30N 29°44' W 095°13'0 0.0
2017-Nov-14 21:00N 29°44' W 095°13'0 0.0
2017-Nov-14 20:30N 29°44' W 095°13'0 0.0
2017-Nov-14 20:00N 29°44' W 095°13'0 0.0
2017-Nov-14 19:30N 29°44' W 095°13'0 0.0
2017-Nov-14 18:57N 29°44' W 095°13'0 0.0
2017-Nov-14 18:30N 29°44' W 095°13'0 0.0
2017-Nov-14 17:59N 29°44' W 095°13'0 0.0
2017-Nov-14 17:22N 29°44' W 095°13'0 0.0
2017-Nov-14 16:56N 29°44' W 095°13'0 0.0
2017-Nov-14 16:28N 29°44' W 095°13'0 0.0
2017-Nov-14 15:59N 29°44' W 095°13'0 0.0
2017-Nov-14 15:30N 29°44' W 095°13'0 0.0
2017-Nov-14 15:00N 29°44' W 095°13'0 0.0
2017-Nov-14 14:30N 29°44' W 095°13'0 0.0
2017-Nov-14 14:00N 29°44' W 095°13'0 0.0
2017-Nov-14 13:30N 29°44' W 095°13'0 0.0
2017-Nov-14 13:00N 29°44' W 095°13'0 0.0
2017-Nov-14 12:31N 29°44' W 095°13'0 0.0
2017-Nov-14 12:00N 29°44' W 095°13'0 0.0
2017-Nov-14 11:30N 29°44' W 095°13'0 0.0
2017-Nov-14 11:00N 29°44' W 095°13'0 0.0
2017-Nov-14 10:30N 29°44' W 095°13'0 0.0
2017-Nov-14 10:00N 29°44' W 095°13'0 0.0
2017-Nov-14 09:30N 29°44' W 095°13'0 0.0
2017-Nov-14 09:00N 29°44' W 095°13'0 0.0
2017-Nov-14 08:30N 29°44' W 095°13'0 0.0
2017-Nov-14 08:00N 29°44' W 095°13'0 0.0
2017-Nov-14 07:30N 29°44' W 095°13'0 0.0
2017-Nov-14 07:00N 29°44' W 095°13'0 0.0
2017-Nov-14 06:30N 29°44' W 095°13'0 0.0
2017-Nov-14 06:00N 29°44' W 095°13'0 0.0
2017-Nov-14 05:14N 29°44' W 095°13'0 0.0
2017-Nov-14 05:00N 29°44' W 095°13'0 0.0
2017-Nov-14 04:31N 29°44' W 095°13'0 0.0
2017-Nov-14 04:00N 29°44' W 095°13'0 0.0
2017-Nov-14 03:30N 29°44' W 095°13'0 0.0
2017-Nov-14 03:00N 29°44' W 095°13'0 0.0
2017-Nov-14 02:30N 29°44' W 095°13'0 0.0
2017-Nov-14 02:00N 29°44' W 095°13'0 0.0
2017-Nov-14 01:30N 29°44' W 095°13'0 0.0
2017-Nov-14 01:00N 29°44' W 095°13'0 0.0
2017-Nov-14 00:30N 29°44' W 095°13'0 0.0
2017-Nov-14 00:00N 29°44' W 095°13'0 0.0
2017-Nov-13 23:29N 29°44' W 095°13'3 5.0
2017-Nov-13 22:54N 29°45' W 095°10'6 0.3
2017-Nov-13 01:57N 29°47' W 095°05'0 0.0
2017-Nov-13 00:32N 29°47' W 095°05'3 0.3
2017-Nov-12 13:07N 29°45' W 095°06'0 0.0
2017-Nov-12 12:58N 29°45' W 095°06'0 0.0
2017-Nov-12 11:38N 29°45' W 095°06'0 0.0
2017-Nov-12 11:09N 29°45' W 095°06'0 0.0
2017-Nov-12 10:38N 29°45' W 095°06'0 0.0
2017-Nov-12 10:23N 29°45' W 095°06'0 0.0
2017-Nov-12 09:55N 29°45' W 095°06'3 0.6
2017-Nov-12 05:19N 29°47' W 095°05'0 0.0
2017-Nov-12 05:00N 29°47' W 095°05'0 0.0
2017-Nov-12 04:30N 29°47' W 095°05'0 0.0
2017-Nov-12 03:16N 29°47' W 095°05'1 0.8
2017-Nov-12 02:11N 29°46' W 095°05'2 0.1
2017-Nov-11 10:16N 29°46' W 095°07'1 0.8
2017-Nov-11 08:32N 29°46' W 095°05'0 2.9
2017-Nov-11 08:29N 29°46' W 095°05'1 0.2
2017-Nov-11 01:53N 29°46' W 095°06'  

Dump ship's entire track history